Time;durP1;ratioP1;P1;durP2;ratioP2;P2;SDS_P1;SDS_P2;PMS_P1;PMS_P2;Temp;Humidity;BMP_temperature;BMP_pressure;BME280_temperature;BME280_humidity;BME280_pressure;Samples;Min_cycle;Max_cycle;Signal;HPM_P1;HPM_P2
2021/01/06 00:00:14;;;;;;;25.33;10.82;;;4.10;99.90;;;;;;5011176;28;20026;-59
2021/01/06 00:02:39;;;;;;;20.98;9.85;;;4.00;99.90;;;;;;5011131;28;20049;-58
2021/01/06 00:05:12;;;;;;;24.60;11.20;;;4.00;99.90;;;;;;4994354;28;20497;-59
2021/01/06 00:07:43;;;;;;;23.20;10.85;;;4.10;99.90;;;;;;5010891;28;20032;-55
2021/01/06 00:10:11;;;;;;;23.77;11.07;;;4.10;99.90;;;;;;5011023;28;20095;-59
2021/01/06 00:12:36;;;;;;;23.38;10.60;;;4.00;99.90;;;;;;5011334;28;20033;-59
2021/01/06 00:15:03;;;;;;;23.55;11.02;;;4.00;99.90;;;;;;5010464;28;20046;-60
2021/01/06 00:17:29;;;;;;;23.35;11.10;;;4.00;99.90;;;;;;5011096;28;20026;-58
2021/01/06 00:19:55;;;;;;;23.38;10.70;;;4.10;99.90;;;;;;5010376;28;20053;-55
2021/01/06 00:22:20;;;;;;;24.80;11.00;;;4.00;99.90;;;;;;5009893;28;20025;-58
2021/01/06 00:24:46;;;;;;;23.08;11.23;;;4.00;99.90;;;;;;5009313;28;20030;-58
2021/01/06 00:27:12;;;;;;;24.00;11.13;;;4.00;99.90;;;;;;5010496;28;20054;-57
2021/01/06 00:29:37;;;;;;;25.15;11.55;;;4.00;99.90;;;;;;4992725;28;20040;-60
2021/01/06 00:32:04;;;;;;;27.23;11.68;;;4.00;99.90;;;;;;5009463;28;20053;-59
2021/01/06 00:34:30;;;;;;;23.13;10.65;;;4.00;99.90;;;;;;5010633;28;20112;-60
2021/01/06 00:36:55;;;;;;;23.02;10.02;;;4.00;99.90;;;;;;4995307;28;20465;-60
2021/01/06 00:39:21;;;;;;;24.02;10.20;;;4.00;99.90;;;;;;4991968;28;20030;-59
2021/01/06 00:41:47;;;;;;;22.45;10.18;;;4.00;99.90;;;;;;5010600;28;20493;-58
2021/01/06 00:44:12;;;;;;;23.80;11.10;;;3.90;99.90;;;;;;5010798;28;20089;-60
2021/01/06 00:46:38;;;;;;;21.90;9.88;;;3.90;99.90;;;;;;5010976;28;20034;-58
2021/01/06 00:49:05;;;;;;;22.33;9.50;;;4.00;99.90;;;;;;5008716;28;20036;-60
2021/01/06 00:51:31;;;;;;;22.70;9.80;;;3.90;99.90;;;;;;5009873;28;20440;-55
2021/01/06 00:53:57;;;;;;;27.35;11.65;;;3.90;99.90;;;;;;5010618;28;20034;-58
2021/01/06 00:56:31;;;;;;;23.08;11.07;;;3.90;99.90;;;;;;5011660;28;20033;-57
2021/01/06 00:58:57;;;;;;;23.42;9.98;;;3.90;99.90;;;;;;5015867;28;20030;-59
2021/01/06 01:01:27;;;;;;;23.65;10.52;;;3.90;99.90;;;;;;5016349;28;20080;-61
2021/01/06 01:03:52;;;;;;;23.65;11.00;;;3.90;99.90;;;;;;5016851;28;20026;-58
2021/01/06 01:06:32;;;;;;;25.85;10.80;;;3.90;99.90;;;;;;5016713;28;20048;-55
2021/01/06 01:08:59;;;;;;;28.77;12.95;;;3.90;99.90;;;;;;5010502;28;20030;-59
2021/01/06 01:11:25;;;;;;;22.98;9.70;;;3.90;99.90;;;;;;5010523;28;20041;-59
2021/01/06 01:13:52;;;;;;;24.17;10.43;;;3.80;99.90;;;;;;5009489;28;20033;-57
2021/01/06 01:16:19;;;;;;;23.08;10.93;;;3.80;99.90;;;;;;5010058;28;20022;-55
2021/01/06 01:18:45;;;;;;;24.02;11.23;;;3.80;99.90;;;;;;5009862;28;20034;-58
2021/01/06 01:21:11;;;;;;;23.10;11.25;;;3.80;99.90;;;;;;5010206;28;20033;-59
2021/01/06 01:23:36;;;;;;;25.52;11.00;;;3.70;99.90;;;;;;5009862;28;20022;-58
2021/01/06 01:26:02;;;;;;;23.30;11.15;;;3.70;99.90;;;;;;5009615;28;20022;-57
2021/01/06 01:28:28;;;;;;;25.77;11.75;;;3.70;99.90;;;;;;4990840;28;20048;-57
2021/01/06 01:30:55;;;;;;;24.25;11.15;;;3.70;99.90;;;;;;4987945;28;20605;-53
2021/01/06 01:33:23;;;;;;;25.65;11.23;;;3.70;99.90;;;;;;5027416;23;20489;-59
2021/01/06 01:35:49;;;;;;;25.63;11.70;;;3.80;99.90;;;;;;5027764;28;20026;-59
2021/01/06 01:38:24;;;;;;;25.30;12.43;;;3.70;99.90;;;;;;5020362;28;20049;-57
2021/01/06 01:40:59;;;;;;;26.20;12.23;;;3.70;99.90;;;;;;5031605;28;20543;-59
2021/01/06 01:43:25;;;;;;;23.95;10.57;;;3.70;99.90;;;;;;5018611;28;20034;-60
2021/01/06 01:45:50;;;;;;;25.52;11.45;;;3.70;99.90;;;;;;5012015;28;20048;-62
2021/01/06 01:48:28;;;;;;;25.58;12.45;;;3.70;99.90;;;;;;5012013;28;20426;-58
2021/01/06 01:50:58;;;;;;;25.00;11.40;;;3.70;99.90;;;;;;5011771;28;20026;-61
2021/01/06 01:53:34;;;;;;;24.23;11.13;;;3.70;99.90;;;;;;4994275;28;20037;-60
2021/01/06 01:56:01;;;;;;;24.05;11.70;;;3.60;99.90;;;;;;4994526;28;20124;-59
2021/01/06 01:58:27;;;;;;;24.00;10.65;;;3.60;99.90;;;;;;5011125;28;20067;-59
2021/01/06 02:00:55;;;;;;;24.95;12.07;;;3.60;99.90;;;;;;4994262;28;20061;-60
2021/01/06 02:03:44;;;;;;;22.58;10.07;;;3.60;99.90;;;;;;5011847;28;20108;-60
2021/01/06 02:06:33;;;;;;;23.63;10.82;;;3.70;99.90;;;;;;5011761;28;20073;-59
2021/01/06 02:09:03;;;;;;;24.98;10.07;;;3.70;99.90;;;;;;4993278;28;20048;-59
2021/01/06 02:11:38;;;;;;;21.92;8.63;;;3.70;99.90;;;;;;5011774;28;20103;-59
2021/01/06 02:14:16;;;;;;;22.85;9.45;;;3.60;99.90;;;;;;4991603;28;20026;-59
2021/01/06 02:16:53;;;;;;;22.95;9.93;;;3.60;99.90;;;;;;4993611;28;20026;-61
2021/01/06 02:19:23;;;;;;;20.88;8.95;;;3.60;99.90;;;;;;4993327;28;20033;-58
2021/01/06 02:21:49;;;;;;;21.20;9.30;;;3.60;99.90;;;;;;5011225;28;20106;-60
2021/01/06 02:24:16;;;;;;;20.35;8.90;;;3.70;99.90;;;;;;4993986;28;20109;-60
2021/01/06 02:26:41;;;;;;;21.25;9.45;;;3.70;99.90;;;;;;5011358;28;20414;-61
2021/01/06 02:29:08;;;;;;;21.65;9.40;;;3.60;99.90;;;;;;4993128;28;20026;-62
2021/01/06 02:31:34;;;;;;;21.98;9.77;;;3.60;99.90;;;;;;4993557;28;20116;-61
2021/01/06 02:34:00;;;;;;;21.25;9.10;;;3.60;99.90;;;;;;5010915;28;20033;-61
2021/01/06 02:36:27;;;;;;;21.08;9.25;;;3.60;99.90;;;;;;5010968;28;20076;-62
2021/01/06 02:38:53;;;;;;;20.20;9.15;;;3.60;99.90;;;;;;5010273;28;20041;-61
2021/01/06 02:41:20;;;;;;;21.20;9.25;;;3.60;99.90;;;;;;5011135;28;20022;-60
2021/01/06 02:43:48;;;;;;;23.23;10.20;;;3.60;99.90;;;;;;5010537;28;20040;-61
2021/01/06 02:46:14;;;;;;;21.23;9.75;;;3.60;99.90;;;;;;5011032;28;20116;-61
2021/01/06 02:48:41;;;;;;;21.50;9.60;;;3.60;99.90;;;;;;5010341;28;20057;-61
2021/01/06 02:51:13;;;;;;;20.52;9.48;;;3.60;99.90;;;;;;5010949;28;20053;-60
2021/01/06 02:53:53;;;;;;;24.13;9.65;;;3.60;99.90;;;;;;5010680;28;20449;-61
2021/01/06 02:56:21;;;;;;;20.73;9.38;;;3.60;99.90;;;;;;4993641;28;20032;-61
2021/01/06 02:58:49;;;;;;;22.55;10.80;;;3.60;99.90;;;;;;5010691;28;20034;-61
2021/01/06 03:01:18;;;;;;;22.63;10.02;;;3.60;99.90;;;;;;5011507;28;20022;-62
2021/01/06 03:03:45;;;;;;;22.27;10.60;;;3.60;99.90;;;;;;5010799;28;20109;-58
2021/01/06 03:06:31;;;;;;;24.38;11.07;;;3.60;99.90;;;;;;4993241;28;20033;-59
2021/01/06 03:08:56;;;;;;;23.52;11.63;;;3.60;99.90;;;;;;4992684;28;20449;-62
2021/01/06 03:11:22;;;;;;;23.92;10.75;;;3.60;99.90;;;;;;5010239;28;20030;-61
2021/01/06 03:13:50;;;;;;;22.15;9.25;;;3.70;99.90;;;;;;5010516;28;20026;-60
2021/01/06 03:16:16;;;;;;;22.75;10.85;;;3.70;99.90;;;;;;4993694;28;20056;-61
2021/01/06 03:18:41;;;;;;;22.33;10.05;;;3.60;99.90;;;;;;5009876;28;20069;-62
2021/01/06 03:21:08;;;;;;;22.02;10.45;;;3.70;99.90;;;;;;5012283;28;20084;-62
2021/01/06 03:24:05;;;;;;;22.02;10.90;;;3.60;99.90;;;;;;4994921;28;20053;-62
2021/01/06 03:26:31;;;;;;;22.15;9.90;;;3.60;99.90;;;;;;4995948;28;20117;-62
2021/01/06 03:28:57;;;;;;;22.77;10.30;;;3.60;99.90;;;;;;5009349;28;20033;-60
2021/01/06 03:31:57;;;;;;;23.23;10.60;;;3.60;99.90;;;;;;5009568;28;20030;-61
2021/01/06 03:34:25;;;;;;;23.85;10.95;;;3.60;99.90;;;;;;4951128;28;20564;-62
2021/01/06 03:37:01;;;;;;;;;;;3.60;99.90;;;;;;5010657;28;20441;-62
2021/01/06 03:39:33;;;;;;;23.33;10.45;;;3.60;99.90;;;;;;5009875;28;19910;-62
2021/01/06 03:41:59;;;;;;;22.67;10.40;;;3.60;99.90;;;;;;4992758;28;20121;-63
2021/01/06 03:44:26;;;;;;;23.42;10.07;;;3.50;99.90;;;;;;5010406;28;20473;-62
2021/01/06 03:47:12;;;;;;;22.17;10.50;;;3.60;99.90;;;;;;5010222;28;20034;-61
2021/01/06 03:49:58;;;;;;;22.15;10.02;;;3.50;99.90;;;;;;5009606;28;20513;-60
2021/01/06 03:52:42;;;;;;;23.70;10.10;;;3.50;99.90;;;;;;5010383;28;20026;-61
2021/01/06 03:55:08;;;;;;;22.15;10.20;;;3.50;99.90;;;;;;5010509;28;20061;-61
2021/01/06 03:57:34;;;;;;;21.73;10.38;;;3.50;99.90;;;;;;5012720;28;20072;-59
2021/01/06 04:00:01;;;;;;;22.42;10.20;;;3.50;99.90;;;;;;4995766;28;20100;-60
2021/01/06 04:02:35;;;;;;;21.20;9.48;;;3.50;99.90;;;;;;5013755;28;20084;-62
2021/01/06 04:05:19;;;;;;;22.02;9.88;;;3.50;99.90;;;;;;4996399;28;20029;-62
2021/01/06 04:07:54;;;;;;;24.15;9.70;;;3.50;99.90;;;;;;5013869;28;20560;-57
2021/01/06 04:10:26;;;;;;;21.17;8.82;;;3.50;99.90;;;;;;5013812;28;20038;-60
2021/01/06 04:12:52;;;;;;;21.10;9.30;;;3.50;99.90;;;;;;5014692;28;20371;-58
2021/01/06 04:15:18;;;;;;;19.90;8.88;;;3.50;99.90;;;;;;5014699;28;20037;-61
2021/01/06 04:17:50;;;;;;;20.83;8.23;;;3.50;99.90;;;;;;5013586;28;20052;-60
2021/01/06 04:20:32;;;;;;;19.58;8.02;;;3.50;99.90;;;;;;5013127;28;20064;-61
2021/01/06 04:23:01;;;;;;;18.88;7.70;;;3.50;99.90;;;;;;5013260;28;20489;-61
2021/01/06 04:25:30;;;;;;;;;;;3.50;99.90;;;;;;5013964;28;20044;-60
2021/01/06 04:28:04;;;;;;;25.13;8.32;;;3.50;99.90;;;;;;4995395;28;19991;-59
2021/01/06 04:30:52;;;;;;;20.42;8.43;;;3.50;99.90;;;;;;5012831;28;20030;-59
2021/01/06 04:33:55;;;;;;;19.70;8.45;;;3.50;99.90;;;;;;5013199;28;20057;-60
2021/01/06 04:36:27;;;;;;;19.95;8.80;;;3.50;99.90;;;;;;4952987;28;20511;-59
2021/01/06 04:38:55;;;;;;;21.23;8.88;;;3.50;99.90;;;;;;5012711;28;20052;-60
2021/01/06 04:41:41;;;;;;;18.17;8.00;;;3.50;99.90;;;;;;5013466;28;20485;-60
2021/01/06 04:44:22;;;;;;;22.13;9.07;;;3.50;99.90;;;;;;4995733;28;20080;-62
2021/01/06 04:47:09;;;;;;;19.33;8.10;;;3.50;99.90;;;;;;5012968;28;20061;-62
2021/01/06 04:50:12;;;;;;;20.10;9.13;;;3.50;99.90;;;;;;5012447;28;20029;-61
2021/01/06 04:53:05;;;;;;;21.60;9.52;;;3.60;99.90;;;;;;5012916;28;20473;-62
2021/01/06 04:55:56;;;;;;;20.63;8.55;;;3.50;99.90;;;;;;4995382;28;20045;-59
2021/01/06 04:58:34;;;;;;;21.77;8.90;;;3.50;99.90;;;;;;5012299;28;20116;-62
2021/01/06 05:01:28;;;;;;;19.48;8.50;;;3.40;99.90;;;;;;4995090;28;20396;-61
2021/01/06 05:04:13;;;;;;;21.67;8.98;;;3.40;99.90;;;;;;5012390;28;20022;-62
2021/01/06 05:06:56;;;;;;;20.70;8.52;;;3.30;99.90;;;;;;4995025;28;20397;-61
2021/01/06 05:09:26;;;;;;;21.17;8.98;;;3.40;99.90;;;;;;5011964;28;20109;-61
2021/01/06 05:12:24;;;;;;;23.67;8.70;;;3.30;99.90;;;;;;4994768;28;20031;-60
2021/01/06 05:15:14;;;;;;;20.83;9.05;;;3.30;99.90;;;;;;4994588;28;20076;-61
2021/01/06 05:17:41;;;;;;;20.73;7.68;;;3.30;99.90;;;;;;5011858;28;20041;-61
2021/01/06 05:20:09;;;;;;;19.55;8.70;;;3.40;99.90;;;;;;4994264;28;20508;-61
2021/01/06 05:22:35;;;;;;;18.67;7.35;;;3.30;99.90;;;;;;4994587;28;20026;-62
2021/01/06 05:25:01;;;;;;;19.63;8.27;;;3.40;99.90;;;;;;5012175;28;20029;-59
2021/01/06 05:27:38;;;;;;;18.88;7.72;;;3.40;99.90;;;;;;4994466;28;20030;-60
2021/01/06 05:30:22;;;;;;;20.50;8.45;;;3.30;99.90;;;;;;5012132;28;20029;-60
2021/01/06 05:32:49;;;;;;;20.73;8.93;;;3.30;99.90;;;;;;4994076;28;20041;-60
2021/01/06 05:35:26;;;;;;;19.27;9.57;;;3.30;99.90;;;;;;4994219;28;20025;-62
2021/01/06 05:37:55;;;;;;;19.88;7.72;;;3.30;99.90;;;;;;4994125;28;20116;-60
2021/01/06 05:40:22;;;;;;;19.10;7.75;;;3.30;99.90;;;;;;4993808;28;20129;-62
2021/01/06 05:42:50;;;;;;;21.20;9.25;;;3.30;99.90;;;;;;5012283;28;20034;-59
2021/01/06 05:45:18;;;;;;;20.77;7.93;;;3.30;99.90;;;;;;5012144;28;20030;-59
2021/01/06 05:47:55;;;;;;;19.55;8.07;;;3.30;99.90;;;;;;5011748;28;20033;-61
2021/01/06 05:50:26;;;;;;;21.75;9.27;;;3.30;99.90;;;;;;5011268;28;20042;-61
2021/01/06 05:53:13;;;;;;;21.92;9.57;;;3.30;99.90;;;;;;5011548;28;20018;-61
2021/01/06 05:55:44;;;;;;;19.60;9.35;;;3.30;99.90;;;;;;5011627;28;20025;-60
2021/01/06 05:58:18;;;;;;;18.42;7.68;;;3.30;99.90;;;;;;4993716;28;20076;-61
2021/01/06 06:01:02;;;;;;;20.42;9.40;;;3.20;99.90;;;;;;5011404;28;20540;-60
2021/01/06 06:03:34;;;;;;;20.83;8.88;;;3.20;99.90;;;;;;5011272;28;20076;-61
2021/01/06 06:06:20;;;;;;;21.30;8.30;;;3.20;99.90;;;;;;5011384;28;20596;-60
2021/01/06 06:09:17;;;;;;;20.23;8.32;;;3.20;99.90;;;;;;5010691;28;20044;-62
2021/01/06 06:12:01;;;;;;;23.08;8.90;;;3.20;99.90;;;;;;5011041;28;20030;-62
2021/01/06 06:14:44;;;;;;;18.38;8.10;;;3.20;99.90;;;;;;5011161;28;20057;-61
2021/01/06 06:17:40;;;;;;;20.73;8.32;;;3.20;99.90;;;;;;4993298;28;20033;-59
2021/01/06 06:20:31;;;;;;;20.92;8.80;;;3.10;99.90;;;;;;4992620;28;20108;-60
2021/01/06 06:23:24;;;;;;;21.73;8.57;;;3.20;99.90;;;;;;5010969;28;20048;-60
2021/01/06 06:25:56;;;;;;;20.98;8.77;;;3.20;99.90;;;;;;5010988;28;20077;-59
2021/01/06 06:28:31;;;;;;;21.92;8.95;;;3.10;99.90;;;;;;4993087;28;20497;-61
2021/01/06 06:30:59;;;;;;;23.55;9.32;;;3.20;99.90;;;;;;5010789;28;20026;-61
2021/01/06 06:33:31;;;;;;;21.42;9.02;;;3.10;99.90;;;;;;5010880;28;20078;-61
2021/01/06 06:36:00;;;;;;;20.88;8.90;;;3.20;99.90;;;;;;5010959;28;20038;-59
2021/01/06 06:38:40;;;;;;;20.42;9.68;;;3.20;99.90;;;;;;5010231;28;20026;-61
2021/01/06 06:41:24;;;;;;;23.27;9.65;;;3.20;99.90;;;;;;4993719;28;20050;-60
2021/01/06 06:43:52;;;;;;;23.13;10.05;;;3.20;99.90;;;;;;5011449;28;20021;-60
2021/01/06 06:46:38;;;;;;;22.98;10.68;;;3.20;99.90;;;;;;5010668;28;20109;-61
2021/01/06 06:49:29;;;;;;;24.73;9.30;;;3.20;99.90;;;;;;5010712;28;20605;-61
2021/01/06 06:52:24;;;;;;;22.20;9.23;;;3.10;99.90;;;;;;5010812;28;20026;-59
2021/01/06 06:55:19;;;;;;;22.15;9.85;;;3.20;99.90;;;;;;5010835;28;20033;-57
2021/01/06 06:58:04;;;;;;;23.13;9.85;;;3.20;99.90;;;;;;4996568;28;20041;-60
2021/01/06 07:00:29;;;;;;;23.45;9.18;;;3.20;99.90;;;;;;5010150;28;20492;-61
2021/01/06 07:03:04;;;;;;;21.58;9.82;;;3.20;99.90;;;;;;5010635;28;20049;-61
2021/01/06 07:05:40;;;;;;;22.13;9.20;;;3.10;99.90;;;;;;5011792;28;20025;-59
2021/01/06 07:08:15;;;;;;;22.10;9.73;;;3.20;99.90;;;;;;5010822;28;20497;-61
2021/01/06 07:10:53;;;;;;;24.75;10.30;;;3.20;99.90;;;;;;5010230;28;20084;-61
2021/01/06 07:13:21;;;;;;;23.15;9.90;;;3.10;99.90;;;;;;5010447;28;20433;-62
2021/01/06 07:16:21;;;;;;;22.10;10.85;;;3.10;99.90;;;;;;4992807;28;20535;-61
2021/01/06 07:18:52;;;;;;;28.35;10.27;;;3.10;99.90;;;;;;5004750;28;20484;-62
2021/01/06 07:21:24;;;;;;;24.20;11.95;;;3.10;99.90;;;;;;5010250;28;20029;-61
2021/01/06 07:24:14;;;;;;;24.40;11.52;;;3.10;99.90;;;;;;5010266;28;20022;-61
2021/01/06 07:26:54;;;;;;;23.25;11.13;;;3.10;99.90;;;;;;5010344;28;20025;-61
2021/01/06 07:29:20;;;;;;;25.15;11.35;;;3.10;99.90;;;;;;5009402;28;20034;-61
2021/01/06 07:31:55;;;;;;;24.60;11.50;;;3.10;99.90;;;;;;5013693;28;20144;-61
2021/01/06 07:34:37;;;;;;;26.55;11.65;;;3.10;99.90;;;;;;5068107;23;20045;-59
2021/01/06 07:37:05;;;;;;;24.40;11.27;;;3.00;99.90;;;;;;5053119;28;20021;-53
2021/01/06 07:39:32;;;;;;;;;;;3.00;99.90;;;;;;5054415;28;20025;-58
2021/01/06 07:42:05;;;;;;;22.35;10.18;;;3.00;99.90;;;;;;5054549;28;19915;-61
2021/01/06 07:44:37;;;;;;;22.85;9.93;;;3.10;99.90;;;;;;5053804;28;20021;-54
2021/01/06 07:47:20;;;;;;;23.58;10.38;;;3.00;99.90;;;;;;5052921;28;20021;-56
2021/01/06 07:50:09;;;;;;;26.67;10.75;;;3.10;99.90;;;;;;5053782;28;20397;-57
2021/01/06 07:52:51;;;;;;;24.95;11.15;;;3.10;99.90;;;;;;5053719;28;20021;-57
2021/01/06 07:55:40;;;;;;;24.05;10.77;;;3.10;99.90;;;;;;5054348;28;20104;-55
2021/01/06 07:58:14;;;;;;;23.70;11.20;;;3.10;99.90;;;;;;5054276;28;20024;-58
2021/01/06 08:00:46;;;;;;;26.35;12.43;;;3.00;99.90;;;;;;5052849;28;20562;-56
2021/01/06 08:03:26;;;;;;;25.13;11.80;;;3.00;99.90;;;;;;5053965;28;20044;-53
2021/01/06 08:05:57;;;;;;;26.33;11.70;;;3.10;99.90;;;;;;5054290;28;20047;-56
2021/01/06 08:08:24;;;;;;;24.60;12.05;;;3.00;99.90;;;;;;5053347;28;20029;-55
2021/01/06 08:10:51;;;;;;;26.42;13.40;;;3.00;99.90;;;;;;5053968;28;20403;-56
2021/01/06 08:13:35;;;;;;;26.23;11.40;;;3.00;99.90;;;;;;5052389;28;20082;-58
2021/01/06 08:16:06;;;;;;;26.35;11.85;;;3.00;99.90;;;;;;5054346;28;20104;-58
2021/01/06 08:19:00;;;;;;;26.85;12.55;;;2.90;99.90;;;;;;5051996;28;20532;-57
2021/01/06 08:21:41;;;;;;;23.98;11.57;;;2.90;99.90;;;;;;5053895;28;20326;-57
2021/01/06 08:24:22;;;;;;;27.00;13.05;;;2.90;99.90;;;;;;5052482;28;20021;-58
2021/01/06 08:26:51;;;;;;;25.33;12.57;;;3.00;99.90;;;;;;5052718;28;20036;-59
2021/01/06 08:29:18;;;;;;;29.48;12.60;;;3.00;99.90;;;;;;5051685;28;20025;-56
2021/01/06 08:31:46;;;;;;;27.88;13.70;;;3.00;99.90;;;;;;5053722;28;20029;-54
2021/01/06 08:34:23;;;;;;;26.45;12.75;;;3.00;99.90;;;;;;5053366;28;20056;-58
2021/01/06 08:36:57;;;;;;;27.90;13.43;;;3.00;99.90;;;;;;5052146;28;20444;-52
2021/01/06 08:39:26;;;;;;;30.67;13.40;;;3.00;99.90;;;;;;5052612;28;20013;-55
2021/01/06 08:41:55;;;;;;;26.40;12.35;;;3.00;99.90;;;;;;5051184;28;20021;-54
2021/01/06 08:44:32;;;;;;;35.63;16.92;;;3.00;99.90;;;;;;5053309;28;20033;-55
2021/01/06 08:47:02;;;;;;;25.13;11.70;;;3.00;99.90;;;;;;5053043;28;20025;-53
2021/01/06 08:49:54;;;;;;;30.50;13.07;;;2.90;99.90;;;;;;5052519;28;20017;-56
2021/01/06 08:52:27;;;;;;;23.63;10.48;;;3.00;99.90;;;;;;5049848;28;20492;-56
2021/01/06 08:55:25;;;;;;;25.00;11.88;;;3.00;99.90;;;;;;5053203;28;20028;-55
2021/01/06 08:58:16;;;;;;;23.33;11.23;;;3.10;99.90;;;;;;5035859;28;20044;-59
2021/01/06 09:01:03;;;;;;;25.70;12.05;;;3.10;99.90;;;;;;5041508;28;20047;-57
2021/01/06 09:04:05;;;;;;;29.80;12.90;;;3.20;99.90;;;;;;5052595;28;20037;-59
2021/01/06 09:06:32;;;;;;;30.75;14.48;;;3.40;99.90;;;;;;5051283;28;20464;-55
2021/01/06 09:09:03;;;;;;;28.42;14.10;;;3.40;99.90;;;;;;5047492;28;20511;-55
2021/01/06 09:11:34;;;;;;;22.92;11.25;;;3.40;99.90;;;;;;5048157;28;20025;-58
2021/01/06 09:14:14;;;;;;;26.55;12.60;;;3.40;99.90;;;;;;5049500;28;20127;-57
2021/01/06 09:16:48;;;;;;;23.80;11.38;;;3.30;99.90;;;;;;5052046;28;20455;-55
2021/01/06 09:19:28;;;;;;;25.40;11.88;;;3.30;99.90;;;;;;5051984;28;20052;-58
2021/01/06 09:21:55;;;;;;;23.98;12.02;;;3.30;99.90;;;;;;5052315;28;20021;-57
2021/01/06 09:24:33;;;;;;;25.10;11.57;;;3.30;99.90;;;;;;5052095;28;20025;-58
2021/01/06 09:27:04;;;;;;;21.80;10.23;;;3.40;99.90;;;;;;5052396;28;20021;-53
2021/01/06 09:29:35;;;;;;;22.92;10.80;;;3.30;99.90;;;;;;5051518;28;20420;-56
2021/01/06 09:32:14;;;;;;;26.52;10.48;;;3.30;99.90;;;;;;5033714;28;20361;-55
2021/01/06 09:34:40;;;;;;;;;;;3.30;99.90;;;;;;5063548;28;20195;-55
2021/01/06 09:37:15;;;;;;;26.23;12.43;;;3.30;99.90;;;;;;5049517;28;19909;-57
2021/01/06 09:39:43;;;;;;;26.55;12.35;;;3.30;99.90;;;;;;5049883;28;20490;-56
2021/01/06 09:42:11;;;;;;;24.33;11.50;;;3.30;99.90;;;;;;5047585;28;20028;-56
2021/01/06 09:44:37;;;;;;;;;;;3.40;99.90;;;;;;5049775;28;20041;-53
2021/01/06 09:47:11;;;;;;;24.45;10.38;;;3.40;99.90;;;;;;5047942;28;19909;-54
2021/01/06 09:49:48;;;;;;;23.85;10.77;;;3.50;99.90;;;;;;5044645;28;20104;-54
2021/01/06 09:52:24;;;;;;;24.73;11.70;;;3.50;99.90;;;;;;5042103;28;20045;-57
2021/01/06 09:54:53;;;;;;;22.38;10.23;;;3.60;99.90;;;;;;5042072;28;20108;-58
2021/01/06 09:57:20;;;;;;;23.00;10.40;;;3.40;99.90;;;;;;5047301;28;20500;-57
2021/01/06 09:59:50;;;;;;;22.60;10.13;;;3.50;99.90;;;;;;5047900;28;20017;-55
2021/01/06 10:02:29;;;;;;;22.77;9.60;;;3.50;99.90;;;;;;5046774;28;20205;-55
2021/01/06 10:05:21;;;;;;;23.08;9.95;;;3.60;99.90;;;;;;5042949;28;20021;-59
2021/01/06 10:08:17;;;;;;;22.95;10.75;;;3.70;99.90;;;;;;5047076;28;20431;-55
2021/01/06 10:10:46;;;;;;;22.60;9.70;;;3.60;99.90;;;;;;5045384;28;20127;-59
2021/01/06 10:13:27;;;;;;;22.13;10.02;;;3.80;99.90;;;;;;5050147;28;20033;-57
2021/01/06 10:16:04;;;;;;;23.60;11.32;;;3.90;99.90;;;;;;5049578;28;20051;-55
2021/01/06 10:18:52;;;;;;;23.35;11.00;;;3.90;99.90;;;;;;5051534;28;20166;-55
2021/01/06 10:21:35;;;;;;;21.77;10.20;;;3.80;99.90;;;;;;5051366;28;20060;-56
2021/01/06 10:24:32;;;;;;;23.83;9.95;;;3.70;99.90;;;;;;5051225;28;20631;-54
2021/01/06 10:27:23;;;;;;;24.48;11.10;;;3.80;99.90;;;;;;5051425;28;20021;-58
2021/01/06 10:29:52;;;;;;;26.05;11.90;;;3.90;99.90;;;;;;5029742;28;20050;-53
2021/01/06 10:32:34;;;;;;;;;;;3.80;99.90;;;;;;5033134;28;20028;-56
2021/01/06 10:35:28;;;;;;;20.90;9.68;;;3.80;99.90;;;;;;5047269;28;19970;-54
2021/01/06 10:37:54;;;;;;;23.98;10.23;;;3.70;99.90;;;;;;5045982;28;20036;-57
2021/01/06 10:40:35;;;;;;;21.85;9.80;;;3.80;99.90;;;;;;5050475;28;20377;-58
2021/01/06 10:43:29;;;;;;;22.25;10.88;;;3.80;99.90;;;;;;5050840;28;20382;-58
2021/01/06 10:45:54;;;;;;;22.25;11.00;;;3.80;99.90;;;;;;5049876;28;20021;-57
2021/01/06 10:48:50;;;;;;;23.35;10.82;;;3.70;99.90;;;;;;5050303;28;20088;-54
2021/01/06 10:51:54;;;;;;;22.90;11.07;;;3.70;99.90;;;;;;5041919;28;20044;-53
2021/01/06 10:54:37;;;;;;;21.15;10.02;;;3.70;99.90;;;;;;5051105;28;20241;-58
2021/01/06 10:57:33;;;;;;;22.50;9.50;;;3.80;99.90;;;;;;5031088;28;20496;-56
2021/01/06 11:00:22;;;;;;;22.65;10.73;;;3.80;99.90;;;;;;5029083;28;20026;-55
2021/01/06 11:03:09;;;;;;;22.75;10.20;;;3.80;99.90;;;;;;5035172;28;20029;-56
2021/01/06 11:05:52;;;;;;;21.88;9.57;;;3.70;99.90;;;;;;5039417;28;20028;-56
2021/01/06 11:08:43;;;;;;;21.65;10.60;;;3.60;99.90;;;;;;5054913;28;20375;-53
2021/01/06 11:11:33;;;;;;;22.20;9.73;;;3.70;99.90;;;;;;5054315;28;20025;-59
2021/01/06 11:14:18;;;;;;;23.23;10.50;;;3.60;99.90;;;;;;5053119;28;20072;-56
2021/01/06 11:16:52;;;;;;;24.42;10.02;;;3.60;99.90;;;;;;5033885;28;20033;-51
2021/01/06 11:19:40;;;;;;;23.38;9.35;;;3.60;99.90;;;;;;5034651;28;20037;-55
2021/01/06 11:22:33;;;;;;;28.60;11.70;;;3.70;99.90;;;;;;5034030;28;20017;-54
2021/01/06 11:25:14;;;;;;;23.33;10.15;;;3.60;99.90;;;;;;5034863;28;20018;-58
2021/01/06 11:28:03;;;;;;;21.52;10.48;;;3.60;99.90;;;;;;5034640;28;20028;-56
2021/01/06 11:30:37;;;;;;;24.35;10.57;;;3.60;99.90;;;;;;5033345;28;20222;-59
2021/01/06 11:33:17;;;;;;;22.27;10.43;;;3.70;99.90;;;;;;5038976;28;20507;-56
2021/01/06 11:35:56;;;;;;;22.52;10.80;;;3.70;99.90;;;;;;5054479;28;20029;-56
2021/01/06 11:38:49;;;;;;;21.20;9.93;;;3.70;99.90;;;;;;5053830;28;20025;-52
2021/01/06 11:41:25;;;;;;;21.42;10.10;;;3.80;99.90;;;;;;5054898;28;20028;-56
2021/01/06 11:44:20;;;;;;;23.17;11.00;;;3.80;99.90;;;;;;5054248;28;20032;-53
2021/01/06 11:46:51;;;;;;;21.90;10.52;;;3.80;99.90;;;;;;5033103;28;20036;-55
2021/01/06 11:49:25;;;;;;;23.42;10.43;;;3.70;99.90;;;;;;5052169;28;20464;-55
2021/01/06 11:52:22;;;;;;;20.75;10.00;;;3.80;99.90;;;;;;5052425;28;20112;-56
2021/01/06 11:54:54;;;;;;;22.55;10.63;;;3.80;99.90;;;;;;5051834;28;20464;-53
2021/01/06 11:57:49;;;;;;;22.15;10.13;;;3.90;99.90;;;;;;5052355;28;20060;-54
2021/01/06 12:00:32;;;;;;;21.05;10.30;;;3.80;99.90;;;;;;5053486;28;20398;-53
2021/01/06 12:03:01;;;;;;;21.42;9.73;;;3.80;99.90;;;;;;5055611;28;20017;-55
2021/01/06 12:05:31;;;;;;;;;;;3.90;99.90;;;;;;5057156;28;20092;-51
2021/01/06 12:08:03;;;;;;;24.15;10.68;;;3.80;99.90;;;;;;5053967;28;20353;-56
2021/01/06 12:10:48;;;;;;;20.13;9.35;;;3.80;99.90;;;;;;5033392;28;20388;-52
2021/01/06 12:13:14;;;;;;;21.50;9.55;;;3.80;99.90;;;;;;5033871;28;20465;-53
2021/01/06 12:15:48;;;;;;;20.55;8.65;;;3.80;99.90;;;;;;5032908;28;20134;-58
2021/01/06 12:18:29;;;;;;;20.80;9.82;;;3.60;99.90;;;;;;5033323;28;20021;-56
2021/01/06 12:20:55;;;;;;;21.35;8.50;;;3.50;99.90;;;;;;5047519;28;20427;-51
2021/01/06 12:23:37;;;;;;;21.80;9.88;;;3.60;99.90;;;;;;5053452;28;20369;-55
2021/01/06 12:26:04;;;;;;;20.83;9.00;;;3.60;99.90;;;;;;5052350;28;20130;-55
2021/01/06 12:28:51;;;;;;;19.58;8.70;;;3.60;99.90;;;;;;5048387;28;20133;-53
2021/01/06 12:31:25;;;;;;;18.73;8.73;;;3.50;99.90;;;;;;5053302;28;20029;-52
2021/01/06 12:34:07;;;;;;;19.63;8.82;;;3.40;99.90;;;;;;5033511;28;20511;-53
2021/01/06 12:36:54;;;;;;;19.75;9.90;;;3.40;99.90;;;;;;5052966;28;20017;-57
2021/01/06 12:39:28;;;;;;;22.70;8.77;;;3.50;99.90;;;;;;5052558;28;20044;-58
2021/01/06 12:42:14;;;;;;;21.13;8.50;;;3.40;99.90;;;;;;5053482;28;20025;-54
2021/01/06 12:44:49;;;;;;;21.67;8.98;;;3.50;99.90;;;;;;5051936;28;20029;-57
2021/01/06 12:47:29;;;;;;;19.60;8.30;;;3.50;99.90;;;;;;5033121;28;20436;-55
2021/01/06 12:50:19;;;;;;;20.42;8.88;;;3.60;99.90;;;;;;5032619;28;20048;-51
2021/01/06 12:52:50;;;;;;;24.00;8.77;;;3.50;99.90;;;;;;5047232;28;20100;-57
2021/01/06 12:55:32;;;;;;;20.60;8.82;;;3.50;99.90;;;;;;5051844;28;20032;-53
2021/01/06 12:58:16;;;;;;;22.48;9.68;;;3.50;99.90;;;;;;5052567;28;20087;-49
2021/01/06 13:00:44;;;;;;;20.77;9.45;;;3.50;99.90;;;;;;5049275;28;20017;-52
2021/01/06 13:03:22;;;;;;;;;;;3.40;99.90;;;;;;5051636;28;20025;-52
2021/01/06 13:05:58;;;;;;;20.38;8.43;;;3.30;99.90;;;;;;5053450;28;19905;-52
2021/01/06 13:08:44;;;;;;;21.35;8.85;;;3.20;99.90;;;;;;5052478;28;20069;-54
2021/01/06 13:11:28;;;;;;;20.25;8.27;;;3.20;99.90;;;;;;5052938;28;20498;-53
2021/01/06 13:14:37;;;;;;;17.38;6.60;;;3.20;99.90;;;;;;5052605;28;20114;-54
2021/01/06 13:17:14;;;;;;;17.20;7.03;;;3.20;99.90;;;;;;5051769;28;20043;-55
2021/01/06 13:19:54;;;;;;;25.45;7.88;;;3.20;99.90;;;;;;5052818;28;20024;-51
2021/01/06 13:22:41;;;;;;;19.80;8.60;;;3.10;99.90;;;;;;5053040;28;20062;-53
2021/01/06 13:25:07;;;;;;;19.98;7.70;;;3.00;99.90;;;;;;5053261;28;20025;-57
2021/01/06 13:27:51;;;;;;;21.35;6.80;;;3.10;99.90;;;;;;5054303;28;20489;-54